NCAR-RAP Real-Time Weather Data

Output produced by METARs form (23 January 2018  15:44 UTC)
found at http://weather.rap.ucar.edu/surface/
 
RJOW 231000Z 30015KT 9999 -SHSN FEW008 SCT020 BKN035 02/M05 Q1017
RJOW 230900Z 30013G24KT 270V330 7000 -SHSN FEW008 SCT020 BKN035 02/M06 Q1017
RJOW 230800Z 28016KT 9999 VCSH FEW015 SCT030 BKN040 02/M05 Q1017
RJOW 230700Z 29013KT 7000 -SHSN FEW002 SCT010 BKN030 02/M03 Q1017
RJOW 230600Z 30016KT 9999 -SHSN FEW005 SCT015 BKN025 03/M03 Q1017
RJOW 230519Z 29014KT 5000 -SHSN FEW002 SCT008 BKN020 02/M01 Q1017 RMK 1ST002 3ST008 5CU020 A3004
RJOW 230500Z 28017KT 3000 -SHSN FEW002 SCT008 BKN013 02/M00 Q1017
RJOW 230431Z 30020G30KT 2000 -SHSN FEW002 BKN008 02/M00 Q1017 RMK 1ST002 7ST008 A3004
RJOW 230426Z 31022KT 9999 -SHSN FEW002 BKN008 03/00 Q1017 RMK 1ST002 7ST008 A3003 3000E-SE
RJOW 230400Z 29019G29KT 9999 -SHSN FEW015 BKN040 04/M03 Q1016
RJOW 230300Z 27024KT 9999 FEW040 BKN090 06/M05 Q1017
RJOW 230200Z 28022G34KT 9999 FEW040 BKN090 06/M04 Q1017
RJOW 230100Z 28022KT 9999 FEW030 SCT045 07/M05 Q1016
RJOW 230000Z 27020G30KT 9999 FEW030 SCT040 07/M02 Q1015
RJOW 222300Z 27017KT 9999 FEW030 SCT040 07/M02 Q1014
RJOW 221000Z 16006KT 9999 -SHRA FEW008 SCT025 BKN040 05/04 Q1013
RJOW 220900Z 17005KT 9999 FEW008 BKN030 BKN080 05/04 Q1013
RJOW 220800Z 17004KT 9999 FEW010 BKN030 06/04 Q1013
RJOW 220700Z VRB02KT 9999 FEW008 SCT015 BKN030 06/03 Q1012
RJOW 220600Z VRB02KT 9999 FEW008 SCT012 BKN/// 06/03 Q1012
RJOW 220500Z 16003KT 110V270 9999 FEW004 SCT010 BKN080 05/03 Q1012
RJOW 220400Z 16005KT 7000 -SHRA FEW002 SCT013 BKN040 04/03 Q1012
RJOW 220300Z 17005KT 7000 -SHRA FEW002 SCT015 BKN045 03/03 Q1014
RJOW 220221Z 14005KT 6000 -SHRA BR FEW002 SCT008 BKN020 03/02 Q1014 RMK 1ST002 3ST008 5CU020 A2997
RJOW 220210Z 14004KT 6000 SHRA BR FEW002 SCT008 BKN020 03/03 Q1015 RMK 1ST002 3ST008 5CU020 A2998
RJOW 220200Z 16005KT 7000 -SHRA FEW002 SCT008 BKN020 03/03 Q1015
RJOW 220100Z 12006KT 9999 -SHRA FEW005 SCT020 BKN030 04/02 Q1016
RJOW 220000Z VRB02KT 9999 -SHRA FEW005 SCT020 BKN030 04/M01 Q1016
RJOW 212300Z 14004KT 9999 FEW002 SCT050 BKN080 04/M01 Q1015
RJOW 211000Z 10005KT 9999 FEW040 BKN/// 06/M01 Q1021
RJOW 210900Z 05005KT 360V090 9999 FEW040 BKN/// 08/M01 Q1021
RJOW 210800Z 04004KT 310V090 9999 FEW040 BKN/// 08/M00 Q1020
RJOW 210700Z 02005KT 340V090 9999 FEW040 BKN/// 09/M02 Q1020
RJOW 210600Z 36005KT 290V090 9999 FEW040 BKN/// 09/M02 Q1021
RJOW 210500Z 34005KT 260V060 9999 FEW040 10/M02 Q1020
RJOW 210400Z 01008KT 330V060 9999 FEW035 SCT045 10/M01 Q1020